createdAt,value
2022-10-20T00:01:43.006Z,6.73
2022-10-20T00:04:10.223Z,7.23
2022-10-20T00:06:36.865Z,7.47
2022-10-20T00:09:04.811Z,8.20
2022-10-20T00:11:32.342Z,7.13
2022-10-20T00:14:00.562Z,6.77
2022-10-20T00:16:29.066Z,7.67
2022-10-20T00:18:57.043Z,7.87
2022-10-20T00:21:26.601Z,7.40
2022-10-20T00:23:53.792Z,6.93
2022-10-20T00:26:25.563Z,7.27
2022-10-20T00:28:53.097Z,7.03
2022-10-20T00:31:21.695Z,7.20
2022-10-20T00:33:48.644Z,6.97
2022-10-20T00:36:17.913Z,7.30
2022-10-20T00:38:44.955Z,8.73
2022-10-20T00:41:17.233Z,6.87
2022-10-20T00:43:48.498Z,6.93
2022-10-20T00:46:19.327Z,7.73
2022-10-20T00:48:50.128Z,7.03
2022-10-20T00:51:20.286Z,7.43
2022-10-20T00:53:48.581Z,7.53
2022-10-20T00:56:15.507Z,7.20
2022-10-20T00:58:43.488Z,8.27
2022-10-20T01:01:11.057Z,7.53
2022-10-20T01:03:46.367Z,7.97
2022-10-20T01:06:18.518Z,7.30
2022-10-20T01:08:45.662Z,7.27
2022-10-20T01:11:24.356Z,7.70
2022-10-20T01:13:51.468Z,7.80
2022-10-20T01:16:23.648Z,7.47
2022-10-20T01:19:06.484Z,7.03
2022-10-20T01:21:54.640Z,7.30
2022-10-20T01:24:21.705Z,7.30
2022-10-20T01:27:12.890Z,6.73
2022-10-20T01:29:39.979Z,7.50
2022-10-20T01:32:32.120Z,6.70
2022-10-20T01:35:10.435Z,7.00
2022-10-20T01:37:52.099Z,7.40
2022-10-20T01:40:31.594Z,7.40
2022-10-20T01:43:03.136Z,7.23
2022-10-20T01:45:32.420Z,7.47
2022-10-20T01:48:02.611Z,7.50
2022-10-20T01:50:30.468Z,7.50
2022-10-20T01:52:58.200Z,7.30
2022-10-20T01:55:25.471Z,7.20
2022-10-20T01:58:22.921Z,7.53
2022-10-20T02:00:52.894Z,6.87
2022-10-20T02:03:45.147Z,6.87
2022-10-20T02:06:19.336Z,7.17
2022-10-20T02:08:46.433Z,7.07
2022-10-20T02:11:22.508Z,7.57
2022-10-20T02:13:50.941Z,7.50
2022-10-20T02:16:25.765Z,7.67
2022-10-20T02:18:52.772Z,7.10
2022-10-20T02:21:20.075Z,7.67
2022-10-20T02:23:49.487Z,6.80
2022-10-20T02:26:19.610Z,7.90
2022-10-20T02:28:49.894Z,7.23
2022-10-20T02:31:18.064Z,7.07
2022-10-20T02:33:46.013Z,7.13
2022-10-20T02:36:18.429Z,7.43
2022-10-20T02:38:45.498Z,7.23
2022-10-20T02:41:12.953Z,6.60
2022-10-20T02:43:39.653Z,6.90
2022-10-20T02:46:06.780Z,6.80
2022-10-20T02:48:33.493Z,6.77
2022-10-20T02:51:00.586Z,6.83
2022-10-20T02:53:27.699Z,7.13
2022-10-20T02:55:54.448Z,7.17
2022-10-20T02:58:21.514Z,6.57
2022-10-20T03:00:50.563Z,6.57
2022-10-20T03:03:18.339Z,6.80
2022-10-20T03:05:46.917Z,7.50
2022-10-20T03:08:14.720Z,7.30
2022-10-20T03:10:42.734Z,7.00
2022-10-20T03:13:10.613Z,6.67
2022-10-20T03:15:39.050Z,7.13
2022-10-20T03:18:06.134Z,7.23
2022-10-20T03:20:33.707Z,6.73
2022-10-20T03:23:00.369Z,6.70
2022-10-20T03:25:27.077Z,6.87
2022-10-20T03:27:53.912Z,7.10
2022-10-20T03:30:20.972Z,6.73
2022-10-20T03:32:48.075Z,6.50
2022-10-20T03:35:14.809Z,6.10
2022-10-20T03:37:41.904Z,6.83
2022-10-20T03:40:09.101Z,7.30
2022-10-20T03:42:36.332Z,6.47
2022-10-20T03:45:03.822Z,6.80
2022-10-20T03:47:30.524Z,6.60
2022-10-20T03:49:57.604Z,6.80
2022-10-20T03:52:24.271Z,6.33
2022-10-20T03:54:51.046Z,6.20
2022-10-20T03:57:17.683Z,6.10
2022-10-20T03:59:44.340Z,6.33
2022-10-20T04:02:23.295Z,6.00
2022-10-20T04:04:49.931Z,6.97
2022-10-20T04:07:16.559Z,6.70
2022-10-20T04:09:43.180Z,6.23
2022-10-20T04:12:09.856Z,6.53
2022-10-20T04:14:36.499Z,6.30
2022-10-20T04:17:03.164Z,5.90
2022-10-20T04:19:29.863Z,6.40
2022-10-20T04:21:56.515Z,6.37
2022-10-20T04:24:23.174Z,6.10
2022-10-20T04:29:21.479Z,6.43
2022-10-20T04:31:49.192Z,6.10
2022-10-20T04:34:16.283Z,6.33
2022-10-20T04:36:42.970Z,5.83
2022-10-20T04:39:09.616Z,6.03
2022-10-20T04:41:36.352Z,5.90
2022-10-20T04:44:03.138Z,6.17
2022-10-20T04:46:29.802Z,5.80
2022-10-20T04:48:56.481Z,5.87
2022-10-20T04:51:23.129Z,6.30
2022-10-20T04:53:49.861Z,5.63
2022-10-20T04:56:19.425Z,5.90
2022-10-20T04:58:50.512Z,5.83
2022-10-20T05:01:17.991Z,5.50
2022-10-20T05:03:45.110Z,5.70
2022-10-20T05:06:21.623Z,5.70
2022-10-20T05:08:51.447Z,6.20
2022-10-20T05:11:19.913Z,5.63
2022-10-20T05:13:47.121Z,5.07
2022-10-20T05:16:14.475Z,4.80
2022-10-20T05:18:41.227Z,5.83
2022-10-20T05:21:10.477Z,5.13
2022-10-20T05:23:38.719Z,5.60
2022-10-20T05:26:07.954Z,5.70
2022-10-20T05:28:34.704Z,5.83
2022-10-20T05:31:08.324Z,5.70
2022-10-20T05:33:35.949Z,6.00
2022-10-20T05:36:09.975Z,5.80
2022-10-20T05:38:37.132Z,5.70
2022-10-20T05:41:09.278Z,5.27
2022-10-20T05:43:36.144Z,5.60
2022-10-20T05:46:03.769Z,5.53
2022-10-20T05:48:31.414Z,5.73
2022-10-20T05:51:14.574Z,5.70
2022-10-20T05:53:43.114Z,4.87
2022-10-20T05:56:12.698Z,5.53
2022-10-20T05:58:39.848Z,5.27
2022-10-20T06:01:16.943Z,5.77
2022-10-20T06:03:51.628Z,5.60
2022-10-20T06:06:19.488Z,6.17
2022-10-20T06:08:46.443Z,6.47
2022-10-20T06:11:14.786Z,6.37
2022-10-20T06:13:41.712Z,5.70
2022-10-20T06:16:14.326Z,5.13
2022-10-20T06:18:43.824Z,5.53
2022-10-20T06:21:13.222Z,6.13
2022-10-20T06:23:40.039Z,5.67
2022-10-20T06:26:12.858Z,6.07
2022-10-20T06:28:41.143Z,5.80
2022-10-20T06:31:12.958Z,5.90
2022-10-20T06:33:39.823Z,6.00
2022-10-20T06:36:06.848Z,6.23
2022-10-20T06:38:33.557Z,6.00
2022-10-20T06:41:08.002Z,5.77
2022-10-20T06:43:34.777Z,5.80
2022-10-20T06:46:06.953Z,6.13
2022-10-20T06:48:35.081Z,5.33
2022-10-20T06:51:04.618Z,5.80
2022-10-20T06:53:31.759Z,6.23
2022-10-20T06:56:06.215Z,5.70
2022-10-20T06:58:35.226Z,6.60
2022-10-20T07:01:04.505Z,6.23
2022-10-20T07:03:36.008Z,6.27
2022-10-20T07:06:04.260Z,6.20
2022-10-20T07:08:33.307Z,6.03
2022-10-20T07:11:12.561Z,6.03
2022-10-20T07:13:39.899Z,5.77
2022-10-20T07:16:08.268Z,6.13
2022-10-20T07:18:36.158Z,6.97
2022-10-20T07:21:06.398Z,5.70
2022-10-20T07:23:34.246Z,6.03
2022-10-20T07:26:10.921Z,6.00
2022-10-20T07:28:39.659Z,6.37
2022-10-20T07:31:15.914Z,5.90
2022-10-20T07:33:42.944Z,6.13
2022-10-20T07:36:21.419Z,6.10
2022-10-20T07:38:48.638Z,5.97
2022-10-20T07:41:15.721Z,5.90
2022-10-20T07:43:42.624Z,6.23
2022-10-20T07:46:10.565Z,6.60
2022-10-20T07:48:37.730Z,5.87
2022-10-20T07:51:24.649Z,6.13
2022-10-20T07:54:01.228Z,6.43
2022-10-20T07:56:35.217Z,6.37
2022-10-20T07:59:02.251Z,6.00
2022-10-20T08:01:28.946Z,6.20
2022-10-20T08:03:55.742Z,6.07
2022-10-20T08:06:22.399Z,5.90
2022-10-20T08:08:49.117Z,6.23
2022-10-20T08:11:16.189Z,6.70
2022-10-20T08:13:43.157Z,6.50
2022-10-20T08:21:35.972Z,5.93
2022-10-20T08:24:03.766Z,6.00
2022-10-20T08:26:30.532Z,6.33
2022-10-20T08:28:57.206Z,5.97
2022-10-20T08:31:23.907Z,6.07
2022-10-20T08:33:52.853Z,6.53
2022-10-20T08:36:20.817Z,5.87
2022-10-20T08:38:47.833Z,6.20
2022-10-20T08:41:38.712Z,6.57
2022-10-20T08:44:23.788Z,5.60
2022-10-20T08:46:50.540Z,6.40
2022-10-20T08:49:24.218Z,5.70
2022-10-20T08:51:51.322Z,6.20
2022-10-20T08:54:18.754Z,6.50
2022-10-20T08:56:46.177Z,6.43
2022-10-20T08:59:29.847Z,6.70
2022-10-20T09:01:57.721Z,6.40
2022-10-20T09:04:33.789Z,7.33
2022-10-20T09:07:05.744Z,6.67
2022-10-20T09:09:33.708Z,6.47
2022-10-20T09:12:06.231Z,6.30
2022-10-20T09:14:36.709Z,6.57
2022-10-20T09:17:05.292Z,6.90
2022-10-20T09:19:36.221Z,6.40
2022-10-20T09:22:07.163Z,5.83
2022-10-20T09:24:35.669Z,6.70
2022-10-20T09:27:45.211Z,6.30
2022-10-20T09:30:25.953Z,6.40
2022-10-20T09:32:53.150Z,6.33
2022-10-20T09:35:30.299Z,7.03
2022-10-20T09:38:02.301Z,6.13
2022-10-20T09:40:29.145Z,6.70
2022-10-20T09:43:11.449Z,6.47
2022-10-20T09:45:50.200Z,6.17
2022-10-20T09:48:32.766Z,6.73
2022-10-20T09:51:00.639Z,6.20
2022-10-20T09:53:33.111Z,6.70
2022-10-20T09:56:00.272Z,6.23
2022-10-20T09:58:28.386Z,6.80
2022-10-20T10:01:01.866Z,6.30
2022-10-20T10:03:29.568Z,5.80
2022-10-20T10:05:58.435Z,6.50
2022-10-20T10:08:28.590Z,6.83
2022-10-20T10:11:13.623Z,7.23
2022-10-20T10:13:44.448Z,7.50
2022-10-20T10:16:16.692Z,6.93
2022-10-20T10:18:49.231Z,7.67
2022-10-20T10:21:17.595Z,7.57
2022-10-20T10:24:27.966Z,7.80
2022-10-20T10:26:56.864Z,8.10
2022-10-20T10:29:28.174Z,7.33
2022-10-20T10:31:59.932Z,8.43
2022-10-20T10:34:38.794Z,7.73
2022-10-20T10:37:05.645Z,7.27
2022-10-20T10:39:35.663Z,8.27
2022-10-20T10:42:21.110Z,8.53
2022-10-20T10:44:50.490Z,8.73
2022-10-20T10:47:39.346Z,8.20
2022-10-20T10:50:27.266Z,8.67
2022-10-20T10:53:15.967Z,9.00
2022-10-20T10:56:16.153Z,9.23
2022-10-20T10:58:53.608Z,8.87
2022-10-20T11:01:39.898Z,9.27
2022-10-20T11:04:19.889Z,10.03
2022-10-20T11:07:27.749Z,10.00
2022-10-20T11:10:23.774Z,9.57
2022-10-20T11:12:50.810Z,9.80
2022-10-20T11:15:33.904Z,9.17
2022-10-20T11:18:39.472Z,10.37
2022-10-20T11:21:06.549Z,10.03
2022-10-20T11:23:51.337Z,10.40
2022-10-20T11:26:31.266Z,11.37
2022-10-20T11:28:58.412Z,10.83
2022-10-20T11:31:25.548Z,11.40
2022-10-20T11:34:00.794Z,12.63
2022-10-20T11:36:43.085Z,11.30
2022-10-20T11:39:18.329Z,12.23
2022-10-20T11:41:45.797Z,11.60
2022-10-20T11:44:18.261Z,11.77
2022-10-20T11:46:55.810Z,11.97
2022-10-20T11:49:22.602Z,12.20
2022-10-20T11:52:10.991Z,11.73
2022-10-20T11:54:56.308Z,12.30
2022-10-20T11:57:57.618Z,11.97
2022-10-20T12:00:26.168Z,12.30
2022-10-20T12:03:11.309Z,11.53
2022-10-20T12:05:53.018Z,12.43
2022-10-20T12:08:48.019Z,12.63
2022-10-20T12:11:33.686Z,11.63
2022-10-20T12:14:15.789Z,12.63
2022-10-20T12:16:54.776Z,13.03
2022-10-20T12:19:22.835Z,13.20
2022-10-20T12:21:58.486Z,12.33
2022-10-20T12:24:37.181Z,12.93
2022-10-20T12:27:04.663Z,12.07
2022-10-20T12:29:31.731Z,13.37
2022-10-20T12:32:29.468Z,13.90
2022-10-20T12:34:57.662Z,14.43
2022-10-20T12:37:24.251Z,13.90
2022-10-20T12:39:57.068Z,15.60
2022-10-20T12:42:24.255Z,15.17
2022-10-20T12:44:52.009Z,14.73
2022-10-20T12:47:24.202Z,14.23
2022-10-20T12:50:16.137Z,13.20
2022-10-20T12:52:42.931Z,14.60
2022-10-20T12:55:31.665Z,15.37
2022-10-20T12:58:16.861Z,14.43
2022-10-20T13:00:46.655Z,14.27
2022-10-20T13:03:31.659Z,14.10
2022-10-20T13:05:59.638Z,13.90
2022-10-20T13:08:32.632Z,14.10
2022-10-20T13:11:44.560Z,14.23
2022-10-20T13:14:32.894Z,13.90
2022-10-20T13:17:31.385Z,12.57
2022-10-20T13:20:06.732Z,12.93
2022-10-20T13:22:46.427Z,13.00
2022-10-20T13:25:27.998Z,13.10
2022-10-20T13:28:07.060Z,13.50
2022-10-20T13:30:36.028Z,12.93
2022-10-20T13:33:33.721Z,12.47
2022-10-20T13:36:29.530Z,13.27
2022-10-20T13:39:15.168Z,12.87
2022-10-20T13:42:06.274Z,13.47
2022-10-20T13:44:51.565Z,11.87
2022-10-20T13:47:48.631Z,13.47
2022-10-20T13:50:36.664Z,12.20
2022-10-20T13:53:14.156Z,12.90
2022-10-20T13:55:58.736Z,12.57
2022-10-20T13:58:26.531Z,12.10
2022-10-20T14:01:01.685Z,13.77
2022-10-20T14:03:31.243Z,13.07
2022-10-20T14:05:59.312Z,12.97
2022-10-20T14:08:26.381Z,11.73
2022-10-20T14:11:06.787Z,11.63
2022-10-20T14:13:35.650Z,12.00
2022-10-20T14:16:06.255Z,13.27
2022-10-20T14:18:39.500Z,12.03
2022-10-20T14:21:14.351Z,12.10
2022-10-20T14:23:43.179Z,12.03
2022-10-20T14:26:18.813Z,10.77
2022-10-20T14:28:47.011Z,11.87
2022-10-20T14:31:14.749Z,12.70
2022-10-20T14:33:44.861Z,12.37
2022-10-20T14:36:30.929Z,12.70
2022-10-20T14:39:00.781Z,12.80
2022-10-20T14:41:36.714Z,12.77
2022-10-20T14:44:14.683Z,13.47
2022-10-20T14:46:50.450Z,13.37
2022-10-20T14:49:30.120Z,12.40
2022-10-20T14:52:20.362Z,12.67
2022-10-20T14:54:51.915Z,13.00
2022-10-20T14:57:19.236Z,13.10
2022-10-20T14:59:55.945Z,13.60
2022-10-20T15:02:28.783Z,13.13
2022-10-20T15:04:55.882Z,13.50
2022-10-20T15:07:26.453Z,13.43
2022-10-20T15:10:07.786Z,13.17
2022-10-20T15:12:37.848Z,13.37
2022-10-20T15:15:18.811Z,13.70
2022-10-20T15:17:47.752Z,14.17
2022-10-20T15:20:40.237Z,13.57
2022-10-20T15:23:21.630Z,14.07
2022-10-20T15:25:48.834Z,14.20
2022-10-20T15:28:43.033Z,14.37
2022-10-20T15:31:21.653Z,14.47
2022-10-20T15:33:49.088Z,15.13
2022-10-20T15:36:20.707Z,15.07
2022-10-20T15:38:48.477Z,14.10
2022-10-20T15:41:20.577Z,14.03
2022-10-20T15:43:47.694Z,14.27
2022-10-20T15:46:16.214Z,14.20
2022-10-20T15:48:43.543Z,15.13
2022-10-20T15:51:19.065Z,14.70
2022-10-20T15:53:48.459Z,15.97
2022-10-20T15:56:18.722Z,15.63
2022-10-20T15:58:45.825Z,15.83
2022-10-20T16:01:13.931Z,16.27
2022-10-20T16:03:43.194Z,15.73
2022-10-20T16:06:13.434Z,17.20
2022-10-20T16:08:45.268Z,15.93
2022-10-20T16:11:12.829Z,16.03
2022-10-20T16:13:40.017Z,17.77
2022-10-20T16:16:08.963Z,15.33
2022-10-20T16:18:35.617Z,15.60
2022-10-20T16:21:04.941Z,16.17
2022-10-20T16:23:32.135Z,15.93
2022-10-20T16:25:59.218Z,16.30
2022-10-20T16:28:26.416Z,15.83
2022-10-20T16:31:02.181Z,15.30
2022-10-20T16:33:28.811Z,16.80
2022-10-20T16:35:55.473Z,16.27
2022-10-20T16:38:22.123Z,17.17
2022-10-20T16:41:03.283Z,16.83
2022-10-20T16:43:30.064Z,17.80
2022-10-20T16:45:57.085Z,15.43
2022-10-20T16:48:24.342Z,17.07
2022-10-20T16:50:51.504Z,17.10
2022-10-20T16:53:18.296Z,17.87
2022-10-20T16:55:55.238Z,16.30
2022-10-20T16:58:22.717Z,16.53
2022-10-20T17:01:09.552Z,17.13
2022-10-20T17:03:41.185Z,20.87
2022-10-20T17:06:08.624Z,19.60
2022-10-20T17:08:37.252Z,17.87
2022-10-20T17:11:12.340Z,16.70
2022-10-20T17:13:39.570Z,18.67
2022-10-20T17:16:09.411Z,18.50
2022-10-20T17:18:36.342Z,18.97
2022-10-20T17:21:03.693Z,17.10
2022-10-20T17:23:38.683Z,17.23
2022-10-20T17:26:11.291Z,17.03
2022-10-20T17:28:38.271Z,18.07
2022-10-20T17:31:09.941Z,17.27
2022-10-20T17:33:37.808Z,17.87
2022-10-20T17:36:05.138Z,17.77
2022-10-20T17:38:32.021Z,17.37
2022-10-20T17:41:28.476Z,17.60
2022-10-20T17:43:55.244Z,16.57
2022-10-20T17:46:22.204Z,18.10
2022-10-20T17:48:48.947Z,16.00
2022-10-20T17:51:19.616Z,17.17
2022-10-20T17:53:48.101Z,17.47
2022-10-20T17:56:19.601Z,17.17
2022-10-20T17:58:48.266Z,16.33
2022-10-20T18:01:17.981Z,16.57
2022-10-20T18:04:09.134Z,18.40
2022-10-20T18:06:36.772Z,18.57
2022-10-20T18:09:10.879Z,16.50
2022-10-20T18:11:39.304Z,18.20
2022-10-20T18:14:06.714Z,17.20
2022-10-20T18:16:35.867Z,16.90
2022-10-20T18:19:03.425Z,16.13
2022-10-20T18:21:31.407Z,17.50
2022-10-20T18:24:02.197Z,16.83
2022-10-20T18:26:30.589Z,17.53
2022-10-20T18:28:59.462Z,15.33
2022-10-20T18:31:30.479Z,16.83
2022-10-20T18:34:02.622Z,17.13
2022-10-20T18:36:33.478Z,17.53
2022-10-20T18:39:00.877Z,16.47
2022-10-20T18:41:30.245Z,16.10
2022-10-20T18:44:01.144Z,15.67
2022-10-20T18:46:29.866Z,17.43
2022-10-20T18:48:57.246Z,17.97
2022-10-20T18:51:24.528Z,18.90
2022-10-20T18:53:56.434Z,17.63
2022-10-20T18:56:25.122Z,16.97
2022-10-20T18:58:54.144Z,17.37
2022-10-20T19:01:23.618Z,16.63
2022-10-20T19:03:51.945Z,15.93
2022-10-20T19:06:26.693Z,18.27
2022-10-20T19:08:55.479Z,16.03
2022-10-20T19:11:24.700Z,17.43
2022-10-20T19:13:51.854Z,17.40
2022-10-20T19:16:21.804Z,17.17
2022-10-20T19:18:51.337Z,16.73
2022-10-20T19:21:22.101Z,17.30
2022-10-20T19:23:55.954Z,16.30
2022-10-20T19:26:31.129Z,16.83
2022-10-20T19:29:01.025Z,16.67
2022-10-20T19:31:54.213Z,17.60
2022-10-20T19:34:42.769Z,16.23
2022-10-20T19:37:09.763Z,17.03
2022-10-20T19:39:39.479Z,15.40
2022-10-20T19:42:08.715Z,17.00
2022-10-20T19:44:36.058Z,17.73
2022-10-20T19:47:04.900Z,18.17
2022-10-20T19:49:31.780Z,16.67
2022-10-20T19:51:58.580Z,16.87
2022-10-20T19:54:25.683Z,17.50
2022-10-20T19:56:52.726Z,16.57
2022-10-20T19:59:19.529Z,17.20
2022-10-20T20:01:48.344Z,17.93
2022-10-20T20:04:15.181Z,18.37
2022-10-20T20:06:41.879Z,18.13
2022-10-20T20:09:10.157Z,17.63
2022-10-20T20:11:38.370Z,17.03
2022-10-20T20:14:17.562Z,17.50
2022-10-20T20:16:47.867Z,15.80
2022-10-20T20:19:16.093Z,18.53
2022-10-20T20:21:42.902Z,17.43
2022-10-20T20:24:12.635Z,18.17
2022-10-20T20:26:39.314Z,17.80
2022-10-20T20:29:06.099Z,17.20
2022-10-20T20:31:33.889Z,18.33
2022-10-20T20:34:00.824Z,18.97
2022-10-20T20:36:28.177Z,18.80
2022-10-20T20:38:58.165Z,17.80
2022-10-20T20:41:27.249Z,17.50
2022-10-20T20:43:54.267Z,17.30
2022-10-20T20:46:22.818Z,17.67
2022-10-20T20:48:50.239Z,17.00
2022-10-20T20:51:17.256Z,16.70
2022-10-20T20:53:44.003Z,19.13
2022-10-20T20:56:13.555Z,19.00
2022-10-20T20:58:41.926Z,17.43
2022-10-20T21:01:10.634Z,18.23
2022-10-20T21:03:37.514Z,17.43
2022-10-20T21:06:10.037Z,19.77
2022-10-20T21:08:38.465Z,19.87
2022-10-20T21:11:10.481Z,18.27
2022-10-20T21:13:37.999Z,18.80
2022-10-20T21:16:07.738Z,19.63
2022-10-20T21:18:34.578Z,17.33
2022-10-20T21:21:21.515Z,18.90
2022-10-20T21:23:48.343Z,17.43
2022-10-20T21:26:16.876Z,18.37
2022-10-20T21:28:44.092Z,18.37
2022-10-20T21:31:14.349Z,17.67
2022-10-20T21:33:41.910Z,18.57
2022-10-20T21:36:19.633Z,17.67
2022-10-20T21:38:48.197Z,18.93
2022-10-20T21:41:26.800Z,17.83
2022-10-20T21:43:55.950Z,17.53
2022-10-20T21:46:29.912Z,17.20
2022-10-20T21:49:09.726Z,18.10
2022-10-20T21:51:39.266Z,16.93
2022-10-20T21:54:10.427Z,18.53
2022-10-20T21:56:40.996Z,18.13
2022-10-20T21:59:12.248Z,17.03
2022-10-20T22:01:38.914Z,17.13
2022-10-20T22:04:05.598Z,18.17
2022-10-20T22:06:32.221Z,17.00
2022-10-20T22:08:59.402Z,16.93
2022-10-20T22:11:32.656Z,18.10
2022-10-20T22:13:59.741Z,17.93
2022-10-20T22:16:28.732Z,17.07
2022-10-20T22:19:00.232Z,17.90
2022-10-20T22:21:27.765Z,17.37
2022-10-20T22:23:56.495Z,16.87
2022-10-20T22:26:27.813Z,16.70
2022-10-20T22:28:54.832Z,17.60
2022-10-20T22:31:23.103Z,16.67
2022-10-20T22:33:54.949Z,17.50
2022-10-20T22:36:22.629Z,17.77
2022-10-20T22:38:49.334Z,15.87
2022-10-20T22:41:15.996Z,16.77
2022-10-20T22:43:42.763Z,16.83
2022-10-20T22:46:09.816Z,17.30
2022-10-20T22:48:36.631Z,16.43
2022-10-20T22:51:08.679Z,16.93
2022-10-20T22:53:36.776Z,16.83
2022-10-20T22:56:18.092Z,15.77
2022-10-20T22:58:45.363Z,16.57
2022-10-20T23:01:18.881Z,15.43
2022-10-20T23:03:46.146Z,16.00
2022-10-20T23:06:23.300Z,15.47
2022-10-20T23:08:52.670Z,15.77
2022-10-20T23:11:20.140Z,15.50
2022-10-20T23:13:47.633Z,15.07
2022-10-20T23:16:15.035Z,15.80
2022-10-20T23:18:42.070Z,15.00
2022-10-20T23:21:09.142Z,15.60
2022-10-20T23:23:37.663Z,15.77
2022-10-20T23:26:08.357Z,15.33
2022-10-20T23:28:36.484Z,14.97
2022-10-20T23:31:16.022Z,15.77
2022-10-20T23:33:44.594Z,14.80
2022-10-20T23:36:13.036Z,15.67
2022-10-20T23:38:40.112Z,17.43
2022-10-20T23:41:07.199Z,15.50
2022-10-20T23:46:07.112Z,15.33
2022-10-20T23:48:34.363Z,15.93
2022-10-20T23:51:01.170Z,17.03
2022-10-20T23:53:27.804Z,15.57
2022-10-20T23:55:54.915Z,16.57
2022-10-20T23:58:23.073Z,16.10
